sensor_id;sensor_type;location;lat;lon;timestamp;pressure;altitude;pressure_sealevel;temperature;humidity
68994;BME280;56054;50.968;5.816;2022-10-26T13:59:09;100896.13;;;20.50;66.57
68994;BME280;56054;50.968;5.816;2022-10-26T14:02:26;100897.03;;;20.51;65.73
68994;BME280;56054;50.968;5.816;2022-10-26T14:05:33;100897.75;;;20.45;64.65
68994;BME280;56054;50.968;5.816;2022-10-26T14:08:41;100902.81;;;20.36;63.96
68994;BME280;56054;50.968;5.816;2022-10-26T14:11:57;100902.81;;;20.36;65.20
68994;BME280;56054;50.968;5.816;2022-10-26T14:15:06;100901.03;;;20.35;65.27
68994;BME280;56054;50.968;5.816;2022-10-26T14:21:30;100912.44;;;20.34;65.79
68994;BME280;56054;50.968;5.816;2022-10-26T14:37:09;100920.84;;;20.19;66.36
68994;BME280;56054;50.968;5.816;2022-10-26T14:40:20;100928.53;;;20.12;66.86
68994;BME280;56054;50.968;5.816;2022-10-26T14:43:28;100926.75;;;20.10;67.11
68994;BME280;56054;50.968;5.816;2022-10-26T14:46:36;100925.06;;;20.13;66.49
68994;BME280;56054;50.968;5.816;2022-10-26T14:49:49;100927.63;;;20.09;66.83
68994;BME280;56054;50.968;5.816;2022-10-26T15:38:42;100994.47;;;19.53;70.88
68994;BME280;56054;50.968;5.816;2022-10-26T15:41:49;101009.97;;;19.42;71.96
68994;BME280;56054;50.968;5.816;2022-10-26T15:44:57;101005.53;;;19.41;72.11
68994;BME280;56054;50.968;5.816;2022-10-26T15:48:33;101012.38;;;19.36;72.56
68994;BME280;56054;50.968;5.816;2022-10-26T15:51:44;101026.28;;;19.30;72.61
68994;BME280;56054;50.968;5.816;2022-10-26T16:07:43;101042.81;;;19.26;73.21
68994;BME280;56054;50.968;5.816;2022-10-26T16:10:54;101039.13;;;19.19;74.04
68994;BME280;56054;50.968;5.816;2022-10-26T16:14:11;101054.69;;;19.13;74.26
68994;BME280;56054;50.968;5.816;2022-10-26T16:17:19;101048.59;;;19.14;74.57
68994;BME280;56054;50.968;5.816;2022-10-26T16:20:26;101060.81;;;19.12;74.42
68994;BME280;56054;50.968;5.816;2022-10-26T16:36:29;101082.28;;;18.97;75.27
68994;BME280;56054;50.968;5.816;2022-10-26T16:39:36;101096.31;;;18.98;75.33
68994;BME280;56054;50.968;5.816;2022-10-26T16:43:09;101098.72;;;18.92;75.98
68994;BME280;56054;50.968;5.816;2022-10-26T16:46:42;101105.25;;;18.77;76.35
68994;BME280;56054;50.968;5.816;2022-10-26T16:49:49;101101.47;;;18.71;76.30
68994;BME280;56054;50.968;5.816;2022-10-26T16:52:57;101100.09;;;18.56;76.77
68994;BME280;56054;50.968;5.816;2022-10-26T16:56:39;101103.44;;;18.52;76.96
68994;BME280;56054;50.968;5.816;2022-10-26T16:59:48;101107.63;;;18.47;77.25
68994;BME280;56054;50.968;5.816;2022-10-26T17:02:55;101116.13;;;18.40;77.21
68994;BME280;56054;50.968;5.816;2022-10-26T17:06:06;101115.19;;;18.38;77.66
68994;BME280;56054;50.968;5.816;2022-10-26T17:09:13;101117.63;;;18.33;77.94
68994;BME280;56054;50.968;5.816;2022-10-26T17:12:20;101127.88;;;18.26;78.27
68994;BME280;56054;50.968;5.816;2022-10-26T17:23:53;101146.66;;;18.12;78.64
68994;BME280;56054;50.968;5.816;2022-10-26T17:27:00;101147.47;;;18.11;78.67
68994;BME280;56054;50.968;5.816;2022-10-26T17:30:08;101154.28;;;18.06;78.81
68994;BME280;56054;50.968;5.816;2022-10-26T17:33:15;101157.69;;;18.04;78.86
68994;BME280;56054;50.968;5.816;2022-10-26T17:36:35;101160.34;;;18.04;78.89
68994;BME280;56054;50.968;5.816;2022-10-26T17:39:44;101161.09;;;18.01;78.91
68994;BME280;56054;50.968;5.816;2022-10-26T17:42:59;101165.09;;;17.91;78.95
68994;BME280;56054;50.968;5.816;2022-10-26T17:50:53;101183.19;;;17.84;79.32
68994;BME280;56054;50.968;5.816;2022-10-26T17:54:00;101187.50;;;17.82;79.50
68994;BME280;56054;50.968;5.816;2022-10-26T19:24:32;101284.13;;;16.71;84.33
68994;BME280;56054;50.968;5.816;2022-10-26T19:28:19;101277.19;;;16.73;84.17
68994;BME280;56054;50.968;5.816;2022-10-26T19:32:09;101279.91;;;16.74;84.42
68994;BME280;56054;50.968;5.816;2022-10-26T19:35:29;101277.94;;;16.70;84.25
68994;BME280;56054;50.968;5.816;2022-10-26T19:38:38;101285.91;;;16.72;84.22
68994;BME280;56054;50.968;5.816;2022-10-26T19:41:50;101280.09;;;16.59;84.40
68994;BME280;56054;50.968;5.816;2022-10-26T19:44:58;101283.31;;;16.54;84.74
68994;BME280;56054;50.968;5.816;2022-10-26T20:22:05;101323.88;;;16.24;87.90
68994;BME280;56054;50.968;5.816;2022-10-26T20:25:46;101320.94;;;16.18;88.44
68994;BME280;56054;50.968;5.816;2022-10-26T20:37:13;101326.88;;;16.14;89.41
68994;BME280;56054;50.968;5.816;2022-10-26T20:53:09;101336.53;;;16.15;90.01
68994;BME280;56054;50.968;5.816;2022-10-26T20:56:43;101343.16;;;16.09;90.38
68994;BME280;56054;50.968;5.816;2022-10-26T20:59:58;101346.88;;;16.12;90.29
68994;BME280;56054;50.968;5.816;2022-10-26T21:03:13;101344.81;;;16.07;90.83
68994;BME280;56054;50.968;5.816;2022-10-26T21:06:29;101343.31;;;16.12;90.69
68994;BME280;56054;50.968;5.816;2022-10-26T21:09:38;101345.03;;;16.11;90.57
68994;BME280;56054;50.968;5.816;2022-10-26T21:38:50;101368.34;;;16.05;90.06
68994;BME280;56054;50.968;5.816;2022-10-26T21:41:58;101366.28;;;15.99;90.22
68994;BME280;56054;50.968;5.816;2022-10-26T21:45:08;101368.75;;;15.96;90.58
68994;BME280;56054;50.968;5.816;2022-10-26T21:48:35;101369.50;;;15.94;90.70
68994;BME280;56054;50.968;5.816;2022-10-26T21:51:43;101362.47;;;15.93;90.61
68994;BME280;56054;50.968;5.816;2022-10-26T21:54:50;101366.09;;;15.95;90.56
68994;BME280;56054;50.968;5.816;2022-10-26T21:57:57;101364.16;;;15.92;90.49
68994;BME280;56054;50.968;5.816;2022-10-26T22:09:36;101361.25;;;15.86;90.88
68994;BME280;56054;50.968;5.816;2022-10-26T22:13:09;101362.97;;;15.86;90.34
68994;BME280;56054;50.968;5.816;2022-10-26T22:24:36;101353.88;;;15.79;91.26
68994;BME280;56054;50.968;5.816;2022-10-26T22:27:43;101363.31;;;15.75;91.22
68994;BME280;56054;50.968;5.816;2022-10-26T22:30:50;101346.88;;;15.78;91.51
68994;BME280;56054;50.968;5.816;2022-10-26T22:33:59;101351.19;;;15.77;91.43
68994;BME280;56054;50.968;5.816;2022-10-26T22:37:09;101356.28;;;15.74;91.54
68994;BME280;56054;50.968;5.816;2022-10-26T22:40:16;101363.47;;;15.78;91.62
68994;BME280;56054;50.968;5.816;2022-10-26T22:43:23;101355.38;;;15.74;91.68
68994;BME280;56054;50.968;5.816;2022-10-26T22:54:54;101358.88;;;15.74;91.64
68994;BME280;56054;50.968;5.816;2022-10-26T23:39:49;101360.34;;;15.53;92.71
68994;BME280;56054;50.968;5.816;2022-10-26T23:43:00;101359.69;;;15.57;92.32
68994;BME280;56054;50.968;5.816;2022-10-26T23:46:18;101361.56;;;15.59;92.06
68994;BME280;56054;50.968;5.816;2022-10-26T23:49:28;101352.66;;;15.56;92.27
68994;BME280;56054;50.968;5.816;2022-10-26T23:52:38;101361.16;;;15.52;92.23
68994;BME280;56054;50.968;5.816;2022-10-26T23:55:46;101358.41;;;15.49;92.07
